Time;durP1;ratioP1;P1;durP2;ratioP2;P2;SDS_P1;SDS_P2;PMS_P1;PMS_P2;Temp;Humidity;BMP_temperature;BMP_pressure;BME280_temperature;BME280_humidity;BME280_pressure;Samples;Min_cycle;Max_cycle;Signal;HPM_P1;HPM_P2
2022/04/29 00:01:25;;;;;;;19.55;7.50;;;;;;;12.25;56.86;102850.00;5031040;28;20099;-63
2022/04/29 00:03:53;;;;;;;15.00;6.90;;;;;;;12.37;57.01;102857.53;5045777;28;20461;-63
2022/04/29 00:06:21;;;;;;;14.38;7.00;;;;;;;12.21;57.16;102862.59;5013891;28;20033;-63
2022/04/29 00:08:47;;;;;;;14.32;7.25;;;;;;;12.21;57.32;102859.06;5031915;28;20106;-63
2022/04/29 00:11:15;;;;;;;17.33;7.88;;;;;;;12.11;57.74;102853.19;5047121;28;20469;-63
2022/04/29 00:13:40;;;;;;;13.00;7.68;;;;;;;12.10;57.90;102846.13;5030814;28;20391;-63
2022/04/29 00:16:06;;;;;;;11.85;6.93;;;;;;;11.99;57.99;102849.16;5013432;28;20022;-63
2022/04/29 00:18:32;;;;;;;13.45;7.75;;;;;;;12.07;57.53;102843.56;5045824;28;20038;-63
2022/04/29 00:20:57;;;;;;;14.75;7.68;;;;;;;11.97;57.89;102840.38;5031720;28;20049;-63
2022/04/29 00:23:23;;;;;;;9.68;7.45;;;;;;;11.86;58.39;102845.22;5013739;28;20057;-63
2022/04/29 00:25:48;;;;;;;13.75;7.47;;;;;;;11.95;57.96;102836.88;5046559;28;20086;-63
2022/04/29 00:28:14;;;;;;;14.98;8.07;;;;;;;11.81;58.26;102852.47;5046829;28;20037;-63
2022/04/29 00:30:42;;;;;;;13.40;8.02;;;;;;;11.89;58.20;102849.59;5031325;28;20029;-63
2022/04/29 00:33:09;;;;;;;11.90;7.03;;;;;;;11.89;58.40;102847.78;5046568;28;20056;-63
2022/04/29 00:35:35;;;;;;;12.23;7.68;;;;;;;11.72;58.33;102850.16;5045870;28;20025;-63
2022/04/29 00:38:01;;;;;;;19.38;7.90;;;;;;;11.77;58.42;102843.72;5029937;28;20389;-63
2022/04/29 00:40:30;;;;;;;15.88;8.38;;;;;;;11.69;58.55;102847.59;5031453;28;20021;-63
2022/04/29 00:42:56;;;;;;;14.45;8.00;;;;;;;11.86;58.36;102837.22;5031598;28;20079;-63
2022/04/29 00:45:24;;;;;;;14.30;7.50;;;;;;;11.77;58.29;102849.06;5031106;28;20025;-63
2022/04/29 00:47:51;;;;;;;17.08;8.30;;;;;;;11.83;58.15;102839.97;5031383;28;20465;-63
2022/04/29 00:50:21;;;;;;;15.75;8.15;;;;;;;11.85;58.48;102838.13;5046057;28;20448;-63
2022/04/29 00:52:59;;;;;;;14.15;8.00;;;;;;;11.68;58.66;102830.72;5031356;28;20063;-63
2022/04/29 00:55:25;;;;;;;13.93;8.20;;;;;;;11.63;58.37;102834.50;5029816;28;20057;-63
2022/04/29 00:58:08;;;;;;;14.05;8.70;;;;;;;11.67;58.54;102836.97;5031366;28;20100;-63
2022/04/29 01:00:35;;;;;;;17.27;8.60;;;;;;;11.63;58.61;102829.16;5046585;28;20040;-63
2022/04/29 01:03:02;;;;;;;16.42;7.65;;;;;;;11.54;58.86;102831.22;5031490;28;20021;-63
2022/04/29 01:05:27;;;;;;;15.52;8.23;;;;;;;11.68;58.70;102830.72;5030549;28;20095;-63
2022/04/29 01:07:53;;;;;;;13.18;8.98;;;;;;;11.60;58.64;102840.78;5030869;28;20025;-63
2022/04/29 01:10:22;;;;;;;15.18;7.80;;;;;;;11.50;59.20;102832.25;5030810;28;20296;-63
2022/04/29 01:12:55;;;;;;;18.65;8.88;;;;;;;11.63;58.82;102834.50;5030860;28;20079;-63
2022/04/29 01:15:21;;;;;;;15.45;8.48;;;;;;;11.48;59.21;102826.09;5033355;28;20061;-63
2022/04/29 01:17:49;;;;;;;12.50;8.38;;;;;;;11.40;59.45;102825.50;5050249;28;20485;-63
2022/04/29 01:20:17;;;;;;;16.20;8.60;;;;;;;11.43;59.38;102824.53;5034290;28;20072;-63
2022/04/29 01:22:44;;;;;;;15.10;7.75;;;;;;;11.40;58.77;102813.97;5035152;28;20130;-63
2022/04/29 01:25:13;;;;;;;15.65;8.85;;;;;;;11.29;59.31;102799.22;5050109;28;20033;-63
2022/04/29 01:27:38;;;;;;;13.88;8.38;;;;;;;11.35;59.07;102807.03;5034847;28;20031;-63
2022/04/29 01:30:11;;;;;;;16.15;8.20;;;;;;;11.21;59.31;102800.44;5033504;28;20460;-63
2022/04/29 01:32:39;;;;;;;14.40;8.10;;;;;;;11.08;60.03;102782.19;5039843;28;20017;-63
2022/04/29 01:35:06;;;;;;;13.68;9.10;;;;;;;11.04;60.23;102793.00;5049174;28;20022;-63
2022/04/29 01:37:32;;;;;;;14.45;8.68;;;;;;;11.02;59.90;102797.50;5034963;28;20021;-63
2022/04/29 01:39:58;;;;;;;14.65;8.60;;;;;;;10.92;60.15;102796.94;5034700;28;20035;-63
2022/04/29 01:42:23;;;;;;;16.10;8.50;;;;;;;10.98;59.95;102790.56;5049772;28;20432;-63
2022/04/29 01:44:49;;;;;;;14.13;8.40;;;;;;;10.86;60.58;102791.84;5034407;28;20075;-63
2022/04/29 01:47:15;;;;;;;16.65;8.63;;;;;;;10.79;60.53;102784.94;5034264;28;20029;-63
2022/04/29 01:49:43;;;;;;;10.02;8.20;;;;;;;10.70;61.04;102788.78;5034091;28;20109;-63
2022/04/29 01:52:09;;;;;;;17.20;9.13;;;;;;;10.58;61.12;102779.41;5034716;28;20448;-63
2022/04/29 01:54:36;;;;;;;14.05;8.38;;;;;;;10.73;61.22;102794.00;5049333;28;20112;-63
2022/04/29 01:57:04;;;;;;;15.70;9.40;;;;;;;10.69;60.95;102784.38;5034133;28;20056;-63
2022/04/29 01:59:33;;;;;;;14.10;8.60;;;;;;;10.59;61.02;102793.56;5034424;28;20095;-63
2022/04/29 02:01:59;;;;;;;14.10;8.88;;;;;;;10.46;61.62;102790.44;5034476;28;20023;-63
2022/04/29 02:04:25;;;;;;;14.98;8.90;;;;;;;10.54;61.35;102793.72;5033564;28;20033;-63
2022/04/29 02:06:50;;;;;;;17.48;9.07;;;;;;;10.38;61.82;102789.81;5049577;28;20123;-63
2022/04/29 02:09:18;;;;;;;15.50;8.68;;;;;;;10.46;61.29;102785.13;5033951;28;20376;-63
2022/04/29 02:12:03;;;;;;;16.77;9.02;;;;;;;10.38;61.28;102784.47;5034083;28;20036;-63
2022/04/29 02:14:29;;;;;;;11.85;8.98;;;;;;;10.42;61.29;102788.81;5033813;28;20080;-63
2022/04/29 02:16:57;;;;;;;15.05;8.13;;;;;;;10.45;61.41;102792.22;5032948;28;20025;-63
2022/04/29 02:19:24;;;;;;;16.27;9.48;;;;;;;10.41;61.24;102787.94;5048631;28;20436;-63
2022/04/29 02:21:49;;;;;;;15.73;9.35;;;;;;;10.40;61.02;102780.00;5049248;28;20119;-63
2022/04/29 02:24:15;;;;;;;18.75;8.70;;;;;;;10.33;61.52;102791.75;5048798;28;20048;-63
2022/04/29 02:26:41;;;;;;;15.75;8.57;;;;;;;10.41;61.40;102787.94;5032684;28;20113;-63
2022/04/29 02:29:07;;;;;;;13.63;8.77;;;;;;;10.34;61.39;102786.38;5033520;28;20028;-63
2022/04/29 02:31:33;;;;;;;13.25;8.80;;;;;;;10.46;61.39;102778.00;5033819;28;20029;-63
2022/04/29 02:33:59;;;;;;;15.98;8.70;;;;;;;10.46;61.06;102780.66;5048505;28;20037;-63
2022/04/29 02:36:25;;;;;;;14.57;8.95;;;;;;;10.52;61.18;102778.75;5033798;28;20087;-63
2022/04/29 02:38:51;;;;;;;16.52;9.98;;;;;;;10.39;61.65;102776.47;5048520;28;20083;-63
2022/04/29 02:41:21;;;;;;;15.15;9.45;;;;;;;10.32;61.40;102782.88;5033233;28;20021;-62
2022/04/29 02:43:47;;;;;;;15.43;9.30;;;;;;;10.24;61.64;102774.25;5033472;28;20030;-63
2022/04/29 02:46:12;;;;;;;18.05;9.65;;;;;;;10.29;61.51;102772.34;5048566;28;20039;-63
2022/04/29 02:48:38;;;;;;;15.48;9.00;;;;;;;10.26;61.76;102777.72;5048191;28;20025;-63
2022/04/29 02:51:04;;;;;;;14.43;9.18;;;;;;;10.33;61.42;102778.44;5048635;28;20029;-63
2022/04/29 02:53:30;;;;;;;11.93;9.32;;;;;;;10.20;62.21;102780.56;5033498;28;20029;-62
2022/04/29 02:55:56;;;;;;;13.70;9.18;;;;;;;10.24;61.49;102777.78;5048351;28;20112;-63
2022/04/29 02:58:26;;;;;;;16.77;10.20;;;;;;;10.20;61.76;102772.59;5033164;28;20558;-63
2022/04/29 03:00:51;;;;;;;;;;;;;;;10.47;60.36;102773.59;5033830;28;20025;-63
2022/04/29 03:03:17;;;;;;;12.85;10.02;;;;;;;10.30;61.28;102776.75;5033191;28;20012;-63
2022/04/29 03:05:43;;;;;;;17.20;9.60;;;;;;;10.16;61.90;102776.28;5031024;28;20091;-63
2022/04/29 03:08:08;;;;;;;13.30;9.20;;;;;;;10.19;61.83;102763.75;5032920;28;20476;-63
2022/04/29 03:10:34;;;;;;;16.60;10.40;;;;;;;10.10;62.08;102758.72;5048054;28;20021;-63
2022/04/29 03:13:00;;;;;;;14.40;10.15;;;;;;;10.05;61.87;102750.00;5033115;28;20029;-62
2022/04/29 03:15:27;;;;;;;11.07;9.80;;;;;;;10.07;62.41;102757.94;5032799;28;20021;-63
2022/04/29 03:20:40;;;;;;;17.63;10.77;;;;;;;9.88;62.71;102725.72;5032359;28;20179;-63
2022/04/29 03:23:08;;;;;;;17.00;10.05;;;;;;;9.89;62.81;102733.66;5047836;28;20053;-63
2022/04/29 03:25:34;;;;;;;17.63;10.30;;;;;;;9.82;63.08;102739.19;5032435;28;20029;-63
2022/04/29 03:28:00;;;;;;;16.23;10.50;;;;;;;9.72;63.22;102744.78;5031357;28;20546;-63
2022/04/29 03:30:26;;;;;;;17.73;11.00;;;;;;;9.64;63.74;102757.41;5032685;28;20036;-63
2022/04/29 03:32:56;;;;;;;16.58;10.18;;;;;;;9.91;63.02;102761.06;5032759;28;20029;-63
2022/04/29 03:35:26;;;;;;;14.88;10.63;;;;;;;9.78;63.21;102757.00;5047276;28;20068;-63
2022/04/29 03:37:53;;;;;;;16.90;10.90;;;;;;;9.89;63.16;102767.34;5032046;28;20030;-63
2022/04/29 03:40:24;;;;;;;18.77;11.00;;;;;;;9.70;63.37;102762.53;5031189;28;20029;-63
2022/04/29 03:42:51;;;;;;;16.13;11.13;;;;;;;9.77;63.23;102766.78;5032598;28;20033;-63
2022/04/29 03:45:17;;;;;;;16.13;10.20;;;;;;;9.76;63.19;102765.03;5031882;28;20056;-63
2022/04/29 03:47:43;;;;;;;14.18;10.23;;;;;;;9.77;63.31;102749.97;5032442;28;20108;-63
2022/04/29 03:50:09;;;;;;;19.15;11.05;;;;;;;9.84;63.43;102748.84;5031448;28;20120;-63
2022/04/29 03:52:51;;;;;;;16.70;11.80;;;;;;;9.81;63.43;102745.41;5032223;28;20468;-63
2022/04/29 03:55:19;;;;;;;15.45;10.95;;;;;;;9.71;63.57;102755.47;5031859;28;20045;-63
2022/04/29 03:57:45;;;;;;;17.92;11.15;;;;;;;9.70;63.21;102751.91;5032342;28;20148;-63
2022/04/29 04:00:13;;;;;;;15.63;11.25;;;;;;;9.68;63.68;102763.53;5030527;28;20032;-63
2022/04/29 04:02:39;;;;;;;17.45;11.32;;;;;;;9.66;63.36;102760.88;5032206;28;20032;-63
2022/04/29 04:05:05;;;;;;;21.58;12.00;;;;;;;9.67;63.75;102753.78;5046466;28;20366;-63
2022/04/29 04:07:30;;;;;;;13.90;11.30;;;;;;;9.68;63.55;102743.13;5031900;28;20428;-63
2022/04/29 04:09:56;;;;;;;14.70;12.07;;;;;;;9.73;63.53;102748.28;5047303;28;20053;-63
2022/04/29 04:12:21;;;;;;;14.48;11.15;;;;;;;9.77;63.41;102756.13;5029544;28;20022;-63
2022/04/29 04:14:47;;;;;;;21.73;11.50;;;;;;;9.70;63.18;102759.00;5031305;28;20105;-63
2022/04/29 04:17:13;;;;;;;14.93;11.82;;;;;;;9.83;63.26;102759.53;5047038;28;20087;-63
2022/04/29 04:19:38;;;;;;;16.38;11.77;;;;;;;9.78;63.19;102755.22;5031051;28;20060;-63
2022/04/29 04:22:04;;;;;;;16.77;11.88;;;;;;;9.78;63.23;102747.25;5031451;28;20548;-62
2022/04/29 04:24:30;;;;;;;23.25;12.88;;;;;;;9.79;63.41;102742.78;5046797;28;20029;-63
2022/04/29 04:26:56;;;;;;;17.65;11.88;;;;;;;9.77;63.29;102739.34;5031850;28;20037;-62
2022/04/29 04:29:25;;;;;;;18.92;12.07;;;;;;;9.67;63.55;102740.50;5046808;28;20393;-63
2022/04/29 04:31:52;;;;;;;20.52;11.90;;;;;;;9.59;64.04;102740.75;5031605;28;20033;-63
2022/04/29 04:37:03;;;;;;;19.45;12.25;;;;;;;9.49;64.46;102744.56;5031525;28;20052;-62
2022/04/29 04:39:28;;;;;;;20.80;12.75;;;;;;;9.44;64.60;102746.44;5046793;28;20120;-62
2022/04/29 04:41:55;;;;;;;20.30;12.85;;;;;;;9.35;64.44;102744.06;5031425;28;20080;-62
2022/04/29 04:44:20;;;;;;;20.17;12.73;;;;;;;9.36;64.29;102738.72;5030882;28;20040;-62
2022/04/29 04:46:46;;;;;;;16.90;13.43;;;;;;;9.41;64.52;102738.56;5031195;28;20469;-63
2022/04/29 04:49:13;;;;;;;20.52;13.23;;;;;;;9.40;64.46;102737.72;5030136;28;20029;-63
2022/04/29 04:51:41;;;;;;;16.50;12.52;;;;;;;9.44;64.37;102733.16;5046269;28;20033;-62
2022/04/29 04:54:07;;;;;;;16.52;13.32;;;;;;;9.44;64.38;102739.38;5029513;28;20038;-63
2022/04/29 04:56:36;;;;;;;17.90;12.88;;;;;;;9.46;64.59;102739.31;5031256;28;20029;-63
2022/04/29 04:59:01;;;;;;;22.38;13.55;;;;;;;9.43;64.33;102736.75;5030708;28;20116;-63
2022/04/29 05:01:27;;;;;;;20.45;13.02;;;;;;;9.42;64.63;102737.69;5029967;28;20124;-63
2022/04/29 05:03:52;;;;;;;18.98;12.88;;;;;;;9.38;64.72;102731.56;5028901;28;20061;-62
2022/04/29 05:06:20;;;;;;;23.58;13.75;;;;;;;9.29;64.76;102734.47;5045924;28;20026;-63
2022/04/29 05:08:46;;;;;;;18.75;12.95;;;;;;;9.26;65.02;102745.19;5030517;28;20030;-63
2022/04/29 05:11:12;;;;;;;22.15;13.73;;;;;;;9.28;64.98;102748.66;5029486;28;20029;-63
2022/04/29 05:13:39;;;;;;;22.45;13.57;;;;;;;9.25;65.25;102740.78;5030654;28;20025;-63
2022/04/29 05:16:05;;;;;;;20.00;13.38;;;;;;;9.28;64.89;102738.06;5065988;28;20069;-62
2022/04/29 05:18:31;;;;;;;16.58;14.48;;;;;;;9.25;65.27;102741.66;5035678;28;20021;-62
2022/04/29 05:20:57;;;;;;;22.45;13.98;;;;;;;9.24;65.17;102750.53;5030609;28;20133;-62
2022/04/29 05:23:22;;;;;;;20.48;14.02;;;;;;;9.22;65.38;102739.09;5029571;28;20022;-63
2022/04/29 05:25:47;;;;;;;28.75;14.88;;;;;;;9.10;65.48;102734.09;5029391;28;20033;-63
2022/04/29 05:28:15;;;;;;;21.27;15.32;;;;;;;9.19;65.38;102746.28;5030141;28;20033;-63
2022/04/29 05:30:44;;;;;;;20.20;14.30;;;;;;;9.24;65.47;102744.38;5045792;28;20092;-63
2022/04/29 05:33:10;;;;;;;17.65;14.30;;;;;;;9.29;65.08;102746.00;5036151;28;20021;-63
2022/04/29 05:35:38;;;;;;;20.88;14.23;;;;;;;9.15;65.21;102721.59;5049824;28;20116;-62
2022/04/29 05:38:04;;;;;;;21.92;15.05;;;;;;;9.31;65.25;102745.94;5050570;28;20029;-62
2022/04/29 05:43:14;;;;;;;28.63;15.20;;;;;;;9.32;65.12;102737.94;5050795;28;20048;-62
2022/04/29 05:45:39;;;;;;;21.17;15.23;;;;;;;9.30;64.95;102749.50;5065706;28;20041;-63
2022/04/29 05:48:05;;;;;;;22.02;15.05;;;;;;;9.29;65.29;102756.63;5065793;28;20036;-62
2022/04/29 05:50:31;;;;;;;21.88;14.40;;;;;;;9.24;65.43;102752.34;5048751;28;20090;-63
2022/04/29 05:52:57;;;;;;;18.70;15.48;;;;;;;9.17;65.61;102753.38;5064854;28;20021;-63
2022/04/29 05:55:22;;;;;;;25.00;15.00;;;;;;;9.21;65.27;102761.25;5065951;28;20021;-63
2022/04/29 05:57:50;;;;;;;26.20;15.77;;;;;;;9.26;65.88;102759.31;5048940;28;20025;-63
2022/04/29 06:00:19;;;;;;;24.50;16.20;;;;;;;9.31;65.40;102768.03;5050831;28;20037;-63
2022/04/29 06:02:46;;;;;;;19.73;14.93;;;;;;;9.37;65.23;102766.13;5052264;28;20024;-63
2022/04/29 06:05:12;;;;;;;22.67;15.55;;;;;;;9.35;65.00;102763.50;5032250;28;20053;-63
2022/04/29 06:07:41;;;;;;;22.75;15.00;;;;;;;9.36;65.18;102764.41;5034165;28;20472;-62
2022/04/29 06:10:10;;;;;;;25.92;15.35;;;;;;;9.19;65.71;102765.72;5048713;28;20547;-63
2022/04/29 06:12:42;;;;;;;25.77;15.80;;;;;;;9.24;65.57;102771.78;5032795;28;20048;-63
2022/04/29 06:15:13;;;;;;;24.33;16.25;;;;;;;9.12;65.23;102749.97;5032536;28;20382;-63
2022/04/29 06:17:38;;;;;;;24.58;16.13;;;;;;;9.18;65.85;102768.44;5032470;28;20075;-63
2022/04/29 06:20:06;;;;;;;25.50;16.08;;;;;;;9.21;66.08;102777.19;5033021;28;20053;-63
2022/04/29 06:22:32;;;;;;;26.35;16.35;;;;;;;9.25;65.36;102773.50;5032582;28;20092;-62
2022/04/29 06:24:58;;;;;;;22.20;16.70;;;;;;;9.36;65.52;102777.69;5033938;28;20071;-62
2022/04/29 06:27:23;;;;;;;31.80;16.30;;;;;;;9.49;64.67;102763.16;5032471;28;20029;-63
2022/04/29 06:29:49;;;;;;;22.35;16.55;;;;;;;9.56;64.97;102772.69;5033897;28;20033;-63
2022/04/29 06:32:15;;;;;;;25.20;15.90;;;;;;;9.48;65.25;102775.56;5033211;28;20064;-63
2022/04/29 06:34:43;;;;;;;21.98;16.20;;;;;;;9.54;64.85;102777.19;5032019;28;20053;-63
2022/04/29 06:37:10;;;;;;;23.95;16.25;;;;;;;9.46;65.14;102785.34;5033520;28;20033;-63
2022/04/29 06:39:37;;;;;;;22.58;16.05;;;;;;;9.53;65.13;102786.06;5032226;28;20060;-63
2022/04/29 06:42:02;;;;;;;26.00;15.98;;;;;;;9.59;64.51;102782.34;5048831;28;20495;-63
2022/04/29 06:44:28;;;;;;;22.92;17.30;;;;;;;9.66;64.53;102771.50;5051710;28;20029;-63
2022/04/29 06:46:57;;;;;;;23.98;15.07;;;;;;;9.68;64.62;102774.16;5068684;28;20111;-63
2022/04/29 06:49:22;;;;;;;27.30;16.67;;;;;;;9.62;64.24;102772.53;5052771;28;20017;-62
2022/04/29 06:51:48;;;;;;;24.90;16.60;;;;;;;9.65;64.77;102772.44;5050751;28;20031;-63
2022/04/29 06:54:14;;;;;;;27.23;16.63;;;;;;;9.79;64.62;102777.34;5051382;28;20049;-63
2022/04/29 06:56:41;;;;;;;27.33;17.65;;;;;;;9.72;64.79;102778.44;5048731;28;20072;-63
2022/04/29 06:59:06;;;;;;;22.50;17.35;;;;;;;9.74;64.54;102774.84;5033192;28;20021;-63
2022/04/29 07:01:33;;;;;;;24.08;16.13;;;;;;;9.86;64.39;102786.03;5032749;28;20103;-63
2022/04/29 07:03:59;;;;;;;24.58;16.55;;;;;;;9.81;64.12;102786.16;5032438;28;20480;-63
2022/04/29 07:06:25;;;;;;;26.23;16.20;;;;;;;9.91;63.64;102782.31;5015447;28;20061;-63
2022/04/29 07:08:52;;;;;;;23.13;16.42;;;;;;;10.06;63.61;102786.31;5033253;28;20043;-63
2022/04/29 07:11:20;;;;;;;27.20;16.33;;;;;;;10.09;63.68;102783.56;5031359;28;20026;-62
2022/04/29 07:13:46;;;;;;;24.70;17.27;;;;;;;10.17;63.33;102783.31;5052219;28;20036;-63
2022/04/29 07:16:14;;;;;;;22.95;16.55;;;;;;;10.20;63.35;102791.19;5051148;28;20033;-63
2022/04/29 07:18:40;;;;;;;26.88;18.00;;;;;;;10.24;63.10;102784.91;5042094;28;20022;-63
2022/04/29 07:21:06;;;;;;;24.58;17.10;;;;;;;10.44;63.28;102784.28;5032640;28;20068;-63
2022/04/29 07:23:31;;;;;;;25.58;17.02;;;;;;;10.55;62.12;102784.81;5047415;28;20037;-63
2022/04/29 07:25:58;;;;;;;29.40;17.80;;;;;;;10.69;61.73;102787.06;5031726;28;20037;-63
2022/04/29 07:28:26;;;;;;;22.30;16.73;;;;;;;10.77;61.74;102782.34;5047875;28;20029;-63
2022/04/29 07:30:53;;;;;;;27.48;15.73;;;;;;;10.83;61.49;102782.16;5030940;28;20461;-63
2022/04/29 07:33:19;;;;;;;22.92;17.92;;;;;;;10.84;61.42;102781.22;5032523;28;20088;-63
2022/04/29 07:43:56;;;;;;;24.92;17.50;;;;;;;10.99;61.10;102784.28;5032477;28;20419;-63
2022/04/29 07:46:23;;;;;;;28.98;16.70;;;;;;;11.07;61.15;102787.56;5031216;28;20033;-63
2022/04/29 07:48:52;;;;;;;23.55;17.13;;;;;;;11.25;60.85;102781.63;5030465;28;20029;-62
2022/04/29 07:51:17;;;;;;;28.58;18.38;;;;;;;11.27;60.11;102768.25;5031031;28;20041;-63
2022/04/29 07:53:43;;;;;;;25.75;17.58;;;;;;;11.33;61.08;102781.34;5031839;28;20048;-63
2022/04/29 07:56:08;;;;;;;29.13;17.55;;;;;;;11.42;60.18;102788.16;5032093;28;20065;-63
2022/04/29 07:58:34;;;;;;;25.92;17.63;;;;;;;11.45;59.83;102786.25;5047063;28;20033;-62
2022/04/29 08:01:00;;;;;;;24.65;17.10;;;;;;;11.42;60.96;102789.03;5030816;28;20102;-63
2022/04/29 08:03:28;;;;;;;24.92;16.17;;;;;;;11.53;59.80;102791.28;5039292;28;20078;-63
2022/04/29 08:05:54;;;;;;;27.13;17.42;;;;;;;11.56;59.71;102789.41;5051917;28;20116;-63
2022/04/29 08:08:20;;;;;;;25.83;17.33;;;;;;;11.53;59.73;102791.28;5042862;28;20160;-63
2022/04/29 08:10:49;;;;;;;26.05;17.73;;;;;;;11.54;60.24;102795.72;5031757;28;20025;-63
2022/04/29 08:13:15;;;;;;;26.45;18.10;;;;;;;11.59;59.80;102799.94;5046520;28;20587;-63
2022/04/29 08:15:43;;;;;;;25.23;16.60;;;;;;;11.55;59.80;102789.44;5063815;28;20041;-63
2022/04/29 08:18:09;;;;;;;26.20;17.15;;;;;;;11.65;59.99;102788.19;5030354;28;20031;-63
2022/04/29 08:20:35;;;;;;;28.60;17.63;;;;;;;11.63;60.24;102773.19;5030752;28;20052;-63
2022/04/29 08:23:00;;;;;;;30.20;17.48;;;;;;;11.79;60.25;102788.56;5030099;28;20032;-63
2022/04/29 08:25:26;;;;;;;21.17;16.02;;;;;;;11.85;60.01;102795.47;5059934;28;20392;-63
2022/04/29 08:27:51;;;;;;;32.40;17.98;;;;;;;11.87;59.31;102796.28;5051296;28;20337;-63
2022/04/29 08:30:17;;;;;;;24.85;16.75;;;;;;;11.97;58.53;102800.38;5066462;28;20040;-63
2022/04/29 08:32:46;;;;;;;21.05;16.52;;;;;;;11.89;58.94;102796.25;5049987;28;20040;-63
2022/04/29 08:35:13;;;;;;;23.00;16.40;;;;;;;11.89;60.00;102799.78;5047624;28;20498;-63
2022/04/29 08:37:40;;;;;;;28.23;17.00;;;;;;;11.92;59.36;102799.66;5051208;28;20025;-63
2022/04/29 08:40:08;;;;;;;29.77;17.77;;;;;;;11.95;59.21;102791.56;5050941;28;20035;-63
2022/04/29 08:42:38;;;;;;;29.60;17.23;;;;;;;12.04;59.50;102793.00;5044069;28;20029;-63
2022/04/29 08:45:22;;;;;;;28.00;17.50;;;;;;;12.05;59.24;102789.41;5030762;28;20534;-63
2022/04/29 08:47:47;;;;;;;29.85;18.88;;;;;;;12.11;58.79;102798.97;5062385;28;20084;-63
2022/04/29 08:50:19;;;;;;;31.60;19.02;;;;;;;12.14;59.51;102796.19;5030646;28;20029;-63
2022/04/29 08:52:45;;;;;;;22.35;16.80;;;;;;;12.20;58.34;102790.59;5031140;28;20127;-63
2022/04/29 09:00:41;;;;;;;26.85;17.75;;;;;;;12.32;58.61;102768.78;5031963;28;20048;-63
2022/04/29 09:03:15;;;;;;;24.20;17.25;;;;;;;12.32;59.41;102754.56;5031073;28;20071;-63
2022/04/29 09:05:41;;;;;;;29.15;18.92;;;;;;;12.34;59.81;102766.06;5030697;28;20071;-63
2022/04/29 09:08:10;;;;;;;31.60;18.38;;;;;;;12.44;59.14;102776.31;5030835;28;20032;-63
2022/04/29 09:10:38;;;;;;;24.35;17.73;;;;;;;12.40;59.33;102781.81;5030948;28;20033;-63
2022/04/29 09:13:13;;;;;;;28.55;17.02;;;;;;;12.49;59.27;102798.34;5030848;28;20045;-63
2022/04/29 09:15:48;;;;;;;24.15;17.48;;;;;;;12.52;59.28;102796.50;5030875;28;20033;-63
2022/04/29 09:18:14;;;;;;;25.20;17.25;;;;;;;12.59;59.23;102795.28;5045651;28;20029;-63
2022/04/29 09:20:41;;;;;;;29.65;16.95;;;;;;;12.69;58.40;102802.88;5030442;28;20042;-63
2022/04/29 09:23:08;;;;;;;25.80;17.00;;;;;;;12.74;57.72;102797.38;5030888;28;20029;-63
2022/04/29 09:25:37;;;;;;;24.73;17.00;;;;;;;12.88;57.75;102799.44;5045715;28;20032;-63
2022/04/29 09:28:06;;;;;;;25.73;17.23;;;;;;;12.86;57.40;102790.66;5045783;28;20108;-63
2022/04/29 09:30:38;;;;;;;26.00;16.60;;;;;;;12.91;58.94;102804.66;5046077;28;20030;-63
2022/04/29 09:33:18;;;;;;;24.02;16.35;;;;;;;12.95;57.78;102808.97;5029600;28;20112;-63
2022/04/29 09:35:47;;;;;;;28.40;17.08;;;;;;;12.90;57.64;102806.47;5032089;28;20017;-63
2022/04/29 09:40:58;;;;;;;29.13;17.35;;;;;;;12.90;58.53;102816.28;5034041;28;20138;-63
2022/04/29 09:43:35;;;;;;;22.27;15.57;;;;;;;12.79;58.83;102808.72;5034635;28;20112;-63
2022/04/29 09:46:14;;;;;;;26.77;16.98;;;;;;;12.76;58.77;102810.63;5034813;28;20489;-63
2022/04/29 09:49:08;;;;;;;25.27;16.92;;;;;;;12.61;59.63;102806.78;5033588;28;20492;-63
2022/04/29 09:51:47;;;;;;;25.15;17.83;;;;;;;12.48;59.86;102796.59;5034624;28;20112;-63
2022/04/29 09:54:27;;;;;;;23.97;16.63;;;;;;;12.56;59.93;102785.63;5034415;28;20044;-63
2022/04/29 09:57:08;;;;;;;26.55;17.02;;;;;;;12.66;59.95;102796.81;5034627;28;20673;-63
2022/04/29 09:59:33;;;;;;;21.33;16.13;;;;;;;12.60;59.34;102792.59;5033683;28;20025;-63
2022/04/29 10:02:00;;;;;;;21.90;16.50;;;;;;;12.62;59.76;102795.19;5034799;28;20464;-63
2022/04/29 10:04:25;;;;;;;28.55;16.85;;;;;;;12.54;59.20;102782.16;5033932;28;20472;-63
2022/04/29 10:06:51;;;;;;;26.73;16.92;;;;;;;12.53;58.79;102779.53;5034269;28;20029;-63
2022/04/29 10:09:19;;;;;;;25.35;16.92;;;;;;;12.49;60.10;102792.13;5033907;28;20025;-63
2022/04/29 10:11:44;;;;;;;23.85;16.70;;;;;;;12.52;59.41;102791.16;5049277;28;20037;-63
2022/04/29 10:14:14;;;;;;;26.35;17.65;;;;;;;12.52;59.38;102777.81;5049361;28;20529;-63
2022/04/29 10:21:15;;;;;;;28.92;17.65;;;;;;;12.54;59.92;102779.47;5034107;28;20119;-63
2022/04/29 10:22:25;;;;;;;25.30;16.90;;;;;;;12.61;60.06;102780.09;5033241;28;20136;-63
2022/04/29 10:24:51;;;;;;;24.85;15.68;;;;;;;12.65;59.63;102774.59;5033858;28;20083;-63
2022/04/29 10:27:18;;;;;;;21.27;16.75;;;;;;;12.64;59.30;102777.31;5033867;28;20428;-63
2022/04/29 10:29:44;;;;;;;29.45;17.33;;;;;;;12.64;60.10;102775.50;5033867;28;20024;-63
2022/04/29 10:32:10;;;;;;;26.10;16.50;;;;;;;12.66;59.93;102778.13;5033584;28;20021;-63
2022/04/29 10:34:36;;;;;;;29.15;17.95;;;;;;;12.75;59.72;102774.19;5048544;28;20116;-63
2022/04/29 10:37:12;;;;;;;23.45;16.52;;;;;;;12.83;59.20;102767.63;5033751;28;20104;-63
2022/04/29 10:39:39;;;;;;;20.02;16.73;;;;;;;12.81;59.45;102769.47;5033112;28;20060;-63
2022/04/29 10:42:09;;;;;;;26.38;18.33;;;;;;;12.79;59.00;102774.00;5033253;28;20025;-63
2022/04/29 10:44:55;;;;;;;24.30;16.67;;;;;;;12.83;58.95;102762.28;5048785;28;20026;-64
2022/04/29 10:47:38;;;;;;;23.70;16.83;;;;;;;12.88;58.70;102778.09;5031023;28;20064;-63
2022/04/29 10:50:29;;;;;;;25.10;16.73;;;;;;;12.99;58.55;102769.63;5046651;28;20507;-64
2022/04/29 10:53:05;;;;;;;26.27;17.00;;;;;;;12.95;58.67;102769.75;5033154;28;20032;-63
2022/04/29 10:55:31;;;;;;;27.17;16.73;;;;;;;12.87;58.89;102773.69;5033140;28;20100;-63
2022/04/29 10:58:01;;;;;;;29.70;16.88;;;;;;;12.85;58.85;102764.84;5033591;28;20079;-63
2022/04/29 11:00:28;;;;;;;22.95;16.13;;;;;;;12.87;59.08;102755.84;5033168;28;20449;-63
2022/04/29 11:02:53;;;;;;;25.25;15.68;;;;;;;12.86;58.55;102759.47;5031676;28;20037;-63
2022/04/29 11:05:36;;;;;;;24.42;15.90;;;;;;;12.92;59.71;102753.00;5031172;28;20128;-63
2022/04/29 11:08:11;;;;;;;26.27;16.42;;;;;;;12.88;59.44;102743.38;5033053;28;20384;-63
2022/04/29 11:10:58;;;;;;;29.15;15.43;;;;;;;12.93;59.69;102752.06;5031644;28;20044;-63
2022/04/29 11:13:26;;;;;;;25.90;15.48;;;;;;;12.94;59.62;102752.00;5032630;28;20033;-63
2022/04/29 11:15:52;;;;;;;24.17;15.52;;;;;;;13.01;59.18;102751.75;5032964;28;20103;-63
2022/04/29 11:18:28;;;;;;;21.13;15.73;;;;;;;13.08;59.04;102761.22;5032749;28;20120;-64
2022/04/29 11:26:50;;;;;;;28.30;15.27;;;;;;;13.10;58.92;102743.34;5030842;28;20047;-63
2022/04/29 11:29:19;;;;;;;24.48;15.20;;;;;;;13.18;59.04;102744.75;5030105;28;20457;-63
2022/04/29 11:31:44;;;;;;;26.95;15.40;;;;;;;13.32;58.78;102754.84;5032652;28;20033;-63
2022/04/29 11:34:13;;;;;;;24.30;14.82;;;;;;;13.39;57.83;102742.09;5047476;28;20128;-63
2022/04/29 11:36:39;;;;;;;23.42;14.25;;;;;;;13.64;57.39;102741.84;5032227;28;20029;-63
2022/04/29 11:39:18;;;;;;;25.55;14.93;;;;;;;13.84;57.27;102740.94;5032377;28;20461;-63
2022/04/29 11:41:57;;;;;;;20.63;12.95;;;;;;;14.23;55.82;102738.16;5066677;28;20028;-63
2022/04/29 11:44:38;;;;;;;20.13;13.80;;;;;;;14.52;54.46;102743.94;5052094;28;20025;-63
2022/04/29 11:47:04;;;;;;;24.33;12.85;;;;;;;14.67;54.36;102740.50;5051994;28;20047;-63
2022/04/29 11:49:32;;;;;;;21.55;13.30;;;;;;;14.91;52.83;102741.09;5031477;28;20480;-63
2022/04/29 11:52:33;;;;;;;18.75;13.15;;;;;;;15.39;52.99;102742.16;5032274;28;20036;-63